Time;durP1;ratioP1;P1;durP2;ratioP2;P2;SDS_P1;SDS_P2;PMS_P1;PMS_P2;Temp;Humidity;BMP_temperature;BMP_pressure;BME280_temperature;BME280_humidity;BME280_pressure;Samples;Min_cycle;Max_cycle;Signal;HPM_P1;HPM_P2
2023/05/15 08:06:38;;;;;;;51.63;32.95;;;;;;;12.16;100.00;101292.03;5069035;28;20376;-67
2023/05/15 08:09:03;;;;;;;49.42;37.25;;;;;;;12.22;100.00;101291.13;5069858;28;20037;-72
2023/05/15 08:11:29;;;;;;;48.20;37.38;;;;;;;12.31;100.00;101301.69;5068082;28;20035;-69
2023/05/15 08:13:54;;;;;;;50.75;45.83;;;;;;;12.32;100.00;101292.47;5090096;28;20029;-70
2023/05/15 08:16:19;;;;;;;52.28;41.70;;;;;;;12.38;100.00;101292.44;5075871;28;20048;-70
2023/05/15 08:18:45;;;;;;;51.22;46.03;;;;;;;12.46;100.00;101296.72;5058288;28;20033;-73
2023/05/15 08:21:10;;;;;;;49.08;44.17;;;;;;;12.58;100.00;101292.19;5050295;28;20056;-73
2023/05/15 08:23:36;;;;;;;47.05;42.33;;;;;;;12.64;100.00;101297.78;5064096;28;20067;-72
2023/05/15 08:26:01;;;;;;;42.22;37.13;;;;;;;12.70;100.00;101296.84;5067677;28;20021;-74
2023/05/15 08:28:26;;;;;;;42.15;37.80;;;;;;;12.73;100.00;101289.06;5067571;28;20086;-72
2023/05/15 08:30:51;;;;;;;44.30;40.00;;;;;;;12.86;100.00;101295.38;5057005;28;20486;-72
2023/05/15 08:33:17;;;;;;;45.72;41.03;;;;;;;12.90;100.00;101289.25;5056374;28;20025;-72
2023/05/15 08:35:42;;;;;;;46.40;41.55;;;;;;;13.03;100.00;101296.41;5066461;28;20492;-73
2023/05/15 08:38:07;;;;;;;45.38;40.78;;;;;;;13.02;100.00;101299.38;5067990;28;20074;-72
2023/05/15 08:40:33;;;;;;;44.65;39.95;;;;;;;13.14;100.00;101296.69;5067893;28;20487;-74
2023/05/15 08:43:20;;;;;;;43.97;39.70;;;;;;;13.20;100.00;101302.03;5067053;28;20059;-72
2023/05/15 08:45:45;;;;;;;40.90;36.70;;;;;;;13.25;100.00;101301.31;5062246;28;20055;-78
2023/05/15 08:48:16;;;;;;;41.90;37.40;;;;;;;13.26;100.00;101292.94;5053968;28;20464;-74
2023/05/15 08:50:43;;;;;;;40.97;36.83;;;;;;;13.36;100.00;101297.84;5060903;28;20438;-74
2023/05/15 08:53:10;;;;;;;41.95;37.53;;;;;;;13.37;100.00;101291.34;5050180;28;20495;-73
2023/05/15 08:55:36;;;;;;;40.67;36.28;;;;;;;13.36;100.00;101294.28;5044608;28;20037;-73
2023/05/15 08:58:02;;;;;;;39.40;35.42;;;;;;;13.54;100.00;101286.06;5047440;28;20036;-71
2023/05/15 09:00:27;;;;;;;40.85;36.65;;;;;;;13.66;100.00;101296.94;5059115;28;20035;-73
2023/05/15 09:02:53;;;;;;;40.60;36.40;;;;;;;13.64;100.00;101286.28;5016225;28;20042;-72
2023/05/15 09:05:18;;;;;;;39.50;35.35;;;;;;;13.83;100.00;101292.47;5027582;28;20132;-72
2023/05/15 09:07:46;;;;;;;38.22;34.33;;;;;;;13.84;100.00;101296.00;5028831;28;20030;-72
2023/05/15 09:10:13;;;;;;;37.75;33.85;;;;;;;13.82;100.00;101290.00;5004159;28;20069;-72
2023/05/15 09:12:42;;;;;;;36.72;32.83;;;;;;;13.92;100.00;101297.53;4989333;28;20037;-70
2023/05/15 09:15:09;;;;;;;39.03;34.80;;;;;;;13.95;100.00;101291.63;4989358;28;20026;-70
2023/05/15 09:17:34;;;;;;;35.83;32.22;;;;;;;14.09;100.00;101292.25;4977892;28;20027;-72
2023/05/15 09:20:02;;;;;;;37.65;33.30;;;;;;;14.12;100.00;101286.31;4992750;28;20088;-71
2023/05/15 09:22:33;;;;;;;38.30;34.30;;;;;;;14.17;100.00;101289.97;4993240;28;20033;-71
2023/05/15 09:24:58;;;;;;;36.15;31.77;;;;;;;14.20;100.00;101291.38;4975948;28;20483;-70
2023/05/15 09:27:23;;;;;;;36.92;33.03;;;;;;;14.20;100.00;101288.66;4977603;28;20068;-70
2023/05/15 09:29:53;;;;;;;35.67;32.08;;;;;;;14.15;100.00;101294.00;4997580;28;20030;-69
2023/05/15 09:32:18;;;;;;;38.05;33.97;;;;;;;14.17;100.00;101286.44;4995369;28;20030;-75
2023/05/15 09:34:44;;;;;;;37.33;33.17;;;;;;;14.19;100.00;101289.72;4995930;28;20057;-72
2023/05/15 09:37:26;;;;;;;36.03;32.22;;;;;;;14.20;100.00;101293.28;4983384;28;20030;-72
2023/05/15 09:39:52;;;;;;;36.60;32.60;;;;;;;14.27;100.00;101289.38;4984666;28;20023;-69
2023/05/15 09:42:17;;;;;;;35.67;31.90;;;;;;;14.28;100.00;101291.03;4989015;28;20039;-70
2023/05/15 09:44:44;;;;;;;33.92;30.23;;;;;;;14.33;100.00;101296.59;4986731;28;20031;-70
2023/05/15 09:47:10;;;;;;;35.95;32.30;;;;;;;14.35;100.00;101296.34;4979008;28;20046;-69
2023/05/15 09:49:36;;;;;;;38.55;34.15;;;;;;;14.33;100.00;101293.03;4994668;28;20129;-71
2023/05/15 09:52:01;;;;;;;37.63;33.55;;;;;;;14.26;100.00;101293.16;4979250;28;20118;-72
2023/05/15 09:54:28;;;;;;;37.38;33.47;;;;;;;14.23;100.00;101296.34;4995020;28;20117;-71
2023/05/15 09:56:55;;;;;;;35.22;31.63;;;;;;;14.15;100.00;101302.19;4988057;28;20118;-72
2023/05/15 09:59:20;;;;;;;37.00;31.23;;;;;;;14.15;100.00;101303.00;4993079;28;20030;-69
2023/05/15 10:01:48;;;;;;;34.85;31.25;;;;;;;14.21;100.00;101295.78;4991772;28;20512;-70
2023/05/15 10:04:13;;;;;;;35.63;31.80;;;;;;;14.19;100.00;101297.88;4978698;28;20038;-72
2023/05/15 10:06:51;;;;;;;34.10;30.30;;;;;;;14.22;100.00;101302.88;4996133;28;20466;-72
2023/05/15 10:09:16;;;;;;;33.28;29.70;;;;;;;14.25;100.00;101296.13;4999717;28;20058;-72
2023/05/15 10:11:44;;;;;;;33.60;30.25;;;;;;;14.33;100.00;101296.59;4996915;28;20104;-71
2023/05/15 10:14:12;;;;;;;35.13;29.52;;;;;;;14.32;100.00;101303.09;4990343;28;20037;-72
2023/05/15 10:16:38;;;;;;;34.28;28.90;;;;;;;14.32;100.00;101303.09;4981015;28;20385;-71
2023/05/15 10:19:06;;;;;;;30.60;27.20;;;;;;;14.30;100.00;101307.94;4990930;28;20042;-71
2023/05/15 10:21:34;;;;;;;30.00;26.95;;;;;;;14.33;100.00;101299.31;5002922;28;20093;-78
2023/05/15 10:24:00;;;;;;;30.13;26.92;;;;;;;14.35;100.00;101310.78;4978676;28;20031;-73
2023/05/15 10:26:35;;;;;;;32.50;26.77;;;;;;;14.39;100.00;101304.84;4983110;28;20042;-70
2023/05/15 10:29:03;;;;;;;29.77;26.55;;;;;;;14.38;100.00;101305.94;5007083;28;20029;-71
2023/05/15 10:31:29;;;;;;;28.75;25.73;;;;;;;14.33;100.00;101304.75;4981248;28;20038;-72
2023/05/15 10:33:55;;;;;;;28.38;25.38;;;;;;;14.32;100.00;101303.09;4986693;28;20482;-71
2023/05/15 10:36:21;;;;;;;28.10;25.15;;;;;;;14.35;100.00;101308.06;4994162;28;20031;-72
2023/05/15 10:38:47;;;;;;;30.35;25.88;;;;;;;14.35;100.00;101315.41;4997535;28;20084;-73
2023/05/15 10:41:16;;;;;;;28.55;25.65;;;;;;;14.36;100.00;101311.63;4986186;28;20034;-69
2023/05/15 10:43:42;;;;;;;29.92;26.88;;;;;;;14.34;100.00;101314.59;4991357;28;20026;-71
2023/05/15 10:46:08;;;;;;;30.85;26.75;;;;;;;14.32;100.00;101308.53;4988459;28;20134;-72
2023/05/15 10:48:35;;;;;;;30.17;27.00;;;;;;;14.31;100.00;101306.06;4985386;28;20034;-72
2023/05/15 10:51:00;;;;;;;30.13;27.02;;;;;;;14.35;100.00;101310.78;4980872;28;20018;-74
2023/05/15 10:53:26;;;;;;;30.15;27.05;;;;;;;14.28;100.00;101310.09;5000651;28;20037;-74
2023/05/15 10:55:51;;;;;;;31.48;28.38;;;;;;;14.24;100.00;101317.06;4993918;28;20037;-73
2023/05/15 10:58:21;;;;;;;31.33;28.25;;;;;;;14.20;100.00;101315.88;4994187;28;20109;-71
2023/05/15 11:00:46;;;;;;;30.15;27.05;;;;;;;14.15;100.00;101318.50;4991073;28;20026;-71
2023/05/15 11:03:13;;;;;;;30.10;27.17;;;;;;;14.15;100.00;101313.88;4993810;28;20027;-71
2023/05/15 11:06:08;;;;;;;30.23;27.23;;;;;;;14.22;100.00;101311.06;4988986;28;20134;-72
2023/05/15 11:08:35;;;;;;;31.85;28.48;;;;;;;14.14;100.00;101309.50;4984239;28;20367;-69
2023/05/15 11:11:00;;;;;;;32.38;29.08;;;;;;;14.09;100.00;101314.84;5028533;28;20030;-72
2023/05/15 11:13:26;;;;;;;35.42;30.85;;;;;;;13.98;100.00;101313.78;5013280;28;20032;-73
2023/05/15 11:15:52;;;;;;;32.15;28.90;;;;;;;13.93;100.00;101310.91;5013020;28;20104;-71
2023/05/15 11:18:19;;;;;;;35.22;31.33;;;;;;;13.90;100.00;101314.09;5013382;28;20104;-72
2023/05/15 11:20:50;;;;;;;36.78;32.97;;;;;;;13.90;100.00;101311.38;4996970;28;20030;-73
2023/05/15 11:23:20;;;;;;;36.28;32.33;;;;;;;13.91;100.00;101307.63;4978631;28;20030;-71
2023/05/15 11:25:52;;;;;;;37.28;33.58;;;;;;;13.95;100.00;101310.69;5008664;28;20033;-77
2023/05/15 11:28:22;;;;;;;38.40;34.55;;;;;;;13.95;100.00;101307.97;5012898;28;20034;-74
2023/05/15 11:30:50;;;;;;;36.90;32.95;;;;;;;13.97;100.00;101308.56;5012985;28;20564;-77
2023/05/15 11:33:16;;;;;;;38.25;33.90;;;;;;;13.98;100.00;101302.88;5005187;28;20038;-73
2023/05/15 11:35:45;;;;;;;41.17;34.30;;;;;;;14.00;100.00;101302.66;4991513;28;20037;-76
2023/05/15 11:38:13;;;;;;;38.55;34.55;;;;;;;13.96;100.00;101309.63;5004007;28;20030;-72
2023/05/15 11:40:51;;;;;;;39.13;34.97;;;;;;;13.98;100.00;101299.34;4988969;28;20549;-73
2023/05/15 11:43:16;;;;;;;35.97;31.67;;;;;;;13.94;100.00;101307.13;4977178;28;21548;-72
2023/05/15 11:45:44;;;;;;;36.90;29.95;;;;;;;13.94;100.00;101304.41;4984340;28;20037;-71
2023/05/15 11:48:12;;;;;;;31.58;27.65;;;;;;;13.88;100.00;101307.28;4993244;28;20030;-74
2023/05/15 11:50:37;;;;;;;33.50;30.00;;;;;;;13.86;100.00;101304.78;4993089;28;20113;-70
2023/05/15 11:53:07;;;;;;;31.90;28.75;;;;;;;13.85;100.00;101303.13;4981762;28;20110;-73
2023/05/15 11:55:37;;;;;;;36.75;33.05;;;;;;;13.88;100.00;101296.38;4990297;28;20484;-69
2023/05/15 11:58:04;;;;;;;37.92;33.88;;;;;;;13.88;100.00;101299.94;4977670;28;20434;-75
2023/05/15 12:00:30;;;;;;;39.92;35.72;;;;;;;13.83;100.00;101305.25;4983203;28;20041;-72
2023/05/15 12:02:56;;;;;;;40.83;36.42;;;;;;;13.85;100.00;101302.31;5003739;28;20405;-72
2023/05/15 12:05:21;;;;;;;41.58;36.20;;;;;;;13.85;100.00;101297.69;5012724;28;20073;-72
2023/05/15 12:07:47;;;;;;;43.00;38.53;;;;;;;13.81;100.00;101296.47;5005417;28;20120;-72
2023/05/15 12:10:13;;;;;;;43.40;38.75;;;;;;;13.83;100.00;101302.53;4997548;28;20045;-69
2023/05/15 12:12:47;;;;;;;44.22;39.63;;;;;;;13.84;100.00;101301.44;4994422;28;20038;-70
2023/05/15 12:15:14;;;;;;;50.17;44.70;;;;;;;13.82;100.00;101303.59;5003677;28;20034;-71
2023/05/15 12:17:40;;;;;;;50.15;44.78;;;;;;;13.81;100.00;101301.94;4972889;28;20067;-70
2023/05/15 12:20:23;;;;;;;50.15;44.67;;;;;;;13.84;100.00;101304.16;4973683;28;20038;-69
2023/05/15 12:22:49;;;;;;;49.67;44.50;;;;;;;13.78;100.00;101299.69;5011239;28;20116;-70
2023/05/15 12:25:15;;;;;;;55.53;44.80;;;;;;;13.79;100.00;101299.44;5012581;28;20168;-68
2023/05/15 12:27:40;;;;;;;49.58;44.13;;;;;;;13.76;100.00;101296.38;5012355;28;20378;-72
2023/05/15 12:30:07;;;;;;;50.72;45.40;;;;;;;13.74;100.00;101296.63;5020086;28;20469;-70
2023/05/15 12:32:35;;;;;;;51.42;46.05;;;;;;;13.75;100.00;101294.72;4973019;28;20038;-69
2023/05/15 12:35:02;;;;;;;50.70;45.20;;;;;;;13.79;100.00;101304.06;4973984;28;20034;-71
2023/05/15 12:37:30;;;;;;;47.65;42.42;;;;;;;13.80;100.00;101301.09;5001236;28;20481;-71
2023/05/15 12:39:59;;;;;;;51.13;45.47;;;;;;;13.82;100.00;101300.88;5011083;28;20458;-67
2023/05/15 12:42:25;;;;;;;52.08;46.00;;;;;;;13.80;100.00;101294.84;5012147;28;20385;-70
2023/05/15 12:44:54;;;;;;;52.05;44.35;;;;;;;13.84;100.00;101296.00;4982588;28;20035;-70
2023/05/15 12:47:24;;;;;;;50.58;44.70;;;;;;;13.82;100.00;101293.53;4992822;28;20038;-74
2023/05/15 12:49:53;;;;;;;53.08;45.70;;;;;;;13.82;100.00;101298.16;4990883;28;20041;-69
2023/05/15 12:52:19;;;;;;;53.78;46.63;;;;;;;13.88;100.00;101297.22;4994731;28;20041;-70
2023/05/15 12:54:44;;;;;;;51.63;46.00;;;;;;;13.95;100.00;101297.06;4994690;28;20117;-70
2023/05/15 12:57:10;;;;;;;53.80;44.80;;;;;;;14.02;100.00;101291.53;4995853;28;20052;-76
2023/05/15 12:59:37;;;;;;;50.75;42.88;;;;;;;14.14;100.00;101286.91;4998207;28;20045;-69
2023/05/15 13:02:03;;;;;;;50.60;45.10;;;;;;;14.24;100.00;101295.28;4985219;28;20053;-69
2023/05/15 13:04:31;;;;;;;50.33;44.72;;;;;;;14.32;100.00;101283.22;5000264;28;20168;-71
2023/05/15 13:06:57;;;;;;;51.95;43.55;;;;;;;14.32;100.00;101285.94;4990014;28;20104;-70
2023/05/15 13:09:23;;;;;;;50.13;42.95;;;;;;;14.34;100.00;101287.34;5022437;28;20465;-70
2023/05/15 13:11:48;;;;;;;52.90;44.95;;;;;;;14.30;100.00;101288.91;4995939;28;20540;-68
2023/05/15 13:14:16;;;;;;;51.80;44.20;;;;;;;14.31;100.00;101290.56;4996244;28;20030;-69
2023/05/15 13:16:43;;;;;;;50.95;44.55;;;;;;;14.33;100.00;101293.03;4995941;28;20035;-71
2023/05/15 13:19:10;;;;;;;49.63;44.22;;;;;;;14.31;100.00;101298.72;4996224;28;20057;-74
2023/05/15 13:21:35;;;;;;;51.20;42.42;;;;;;;14.43;100.00;101286.97;5011780;28;20061;-72
2023/05/15 13:24:01;;;;;;;48.33;41.78;;;;;;;14.53;100.00;101284.47;5002778;28;20065;-72
2023/05/15 13:26:26;;;;;;;46.45;41.25;;;;;;;14.58;100.00;101284.56;4976408;28;20113;-71
2023/05/15 13:28:52;;;;;;;46.35;40.28;;;;;;;14.61;100.00;101289.56;4976297;28;20041;-70
2023/05/15 13:31:17;;;;;;;43.42;36.38;;;;;;;14.57;100.00;101291.09;4979701;28;20062;-71
2023/05/15 13:33:42;;;;;;;40.60;35.42;;;;;;;14.54;100.00;101286.94;4976573;28;20039;-69
2023/05/15 13:36:08;;;;;;;41.58;36.80;;;;;;;14.47;100.00;101290.88;4976314;28;20035;-70
2023/05/15 13:38:33;;;;;;;40.42;36.08;;;;;;;14.49;100.00;101292.31;4996202;28;20545;-71
2023/05/15 13:40:58;;;;;;;35.13;30.00;;;;;;;14.45;100.00;101291.13;5013935;28;20037;-69
2023/05/15 13:43:24;;;;;;;34.60;29.25;;;;;;;14.44;100.00;101289.47;5007860;28;20030;-69
2023/05/15 13:45:49;;;;;;;35.42;29.52;;;;;;;14.42;100.00;101288.88;4975894;28;20035;-70
2023/05/15 13:48:15;;;;;;;36.83;29.92;;;;;;;14.48;100.00;101292.56;4976065;28;20482;-70
2023/05/15 13:50:42;;;;;;;36.70;28.88;;;;;;;14.54;100.00;101297.03;4975815;28;20113;-72
2023/05/15 13:53:07;;;;;;;30.05;26.20;;;;;;;14.45;100.00;101287.59;4976317;28;20042;-71
2023/05/15 13:55:32;;;;;;;32.67;25.92;;;;;;;14.46;100.00;101291.94;4995767;28;20033;-69
2023/05/15 13:57:57;;;;;;;30.50;25.15;;;;;;;14.45;100.00;101285.69;4999024;28;20049;-68
2023/05/15 14:00:23;;;;;;;27.98;23.25;;;;;;;14.48;100.00;101285.19;4975026;28;20031;-71
2023/05/15 14:02:48;;;;;;;32.25;23.77;;;;;;;14.46;100.00;101291.94;4989156;28;20073;-70
2023/05/15 14:05:15;;;;;;;27.25;23.83;;;;;;;14.39;100.00;101291.25;4992935;28;20061;-68
2023/05/15 14:07:40;;;;;;;24.20;21.52;;;;;;;14.38;100.00;101286.88;4992012;28;20126;-70
2023/05/15 14:10:07;;;;;;;22.85;19.15;;;;;;;14.33;100.00;101293.03;4995181;28;20437;-69
2023/05/15 14:12:32;;;;;;;20.42;18.33;;;;;;;14.26;100.00;101292.34;4992755;28;20180;-69
2023/05/15 14:14:58;;;;;;;18.77;16.77;;;;;;;14.23;100.00;101292.81;4995016;28;20117;-70
2023/05/15 14:17:24;;;;;;;19.85;17.05;;;;;;;14.24;100.00;101289.03;5007664;28;20038;-69
2023/05/15 14:19:49;;;;;;;18.25;15.82;;;;;;;14.16;100.00;101292.94;4995694;28;20041;-69
2023/05/15 14:22:15;;;;;;;16.58;13.90;;;;;;;14.11;100.00;101285.47;4991334;28;20031;-69
2023/05/15 14:24:40;;;;;;;13.35;10.32;;;;;;;14.08;100.00;101296.03;4996903;28;20057;-69
2023/05/15 14:27:06;;;;;;;13.00;8.90;;;;;;;14.05;100.00;101293.78;5010360;28;20539;-68
2023/05/15 14:29:32;;;;;;;10.95;8.15;;;;;;;14.08;100.00;101296.84;5014311;28;20034;-69
2023/05/15 14:31:57;;;;;;;12.73;8.57;;;;;;;14.10;100.00;101310.22;5013962;28;20030;-70
2023/05/15 14:34:22;;;;;;;12.25;8.07;;;;;;;14.05;100.00;101299.22;5000332;28;20099;-70
2023/05/15 14:36:48;;;;;;;13.40;8.20;;;;;;;14.12;100.00;101297.22;4978024;28;20038;-70
2023/05/15 14:39:14;;;;;;;11.50;7.97;;;;;;;14.15;100.00;101291.28;4974780;28;20498;-71
2023/05/15 14:41:40;;;;;;;12.07;7.63;;;;;;;14.26;100.00;101289.63;5000605;28;20037;-69
2023/05/15 14:44:05;;;;;;;12.52;7.88;;;;;;;14.32;100.00;101296.81;5014015;28;20425;-70
2023/05/15 14:46:30;;;;;;;12.65;7.60;;;;;;;14.34;100.00;101295.53;5001662;28;20031;-69
2023/05/15 14:48:55;;;;;;;11.25;7.15;;;;;;;14.32;100.00;101289.47;4991744;28;21359;-69
2023/05/15 14:51:21;;;;;;;12.00;6.60;;;;;;;14.27;100.00;101299.44;4974209;28;20046;-69
2023/05/15 14:53:46;;;;;;;11.25;6.35;;;;;;;14.20;100.00;101298.75;4988150;28;20588;-70
2023/05/15 14:56:12;;;;;;;11.52;6.13;;;;;;;14.27;100.00;101302.16;5014000;28;20176;-69
2023/05/15 14:58:37;;;;;;;11.43;6.68;;;;;;;14.29;100.00;101298.13;5011150;28;20103;-70
2023/05/15 15:01:03;;;;;;;12.73;5.88;;;;;;;14.45;100.00;101298.47;5006731;28;20045;-69
2023/05/15 15:03:29;;;;;;;12.13;6.38;;;;;;;14.55;100.00;101312.28;4994146;28;20036;-69
2023/05/15 15:05:55;;;;;;;13.73;6.25;;;;;;;14.76;100.00;101318.19;4991540;28;20429;-68
2023/05/15 15:08:20;;;;;;;12.30;5.60;;;;;;;14.78;100.00;101321.50;4990624;28;20041;-68
2023/05/15 15:10:45;;;;;;;10.90;5.78;;;;;;;14.72;100.00;101326.03;4977467;28;20035;-69
2023/05/15 15:13:12;;;;;;;12.18;5.65;;;;;;;14.50;100.00;101317.63;4993853;28;20041;-68
2023/05/15 15:15:38;;;;;;;11.15;5.60;;;;;;;14.28;100.00;101331.88;4992012;28;20057;-74
2023/05/15 15:18:04;;;;;;;9.55;5.53;;;;;;;14.17;100.00;101324.53;4991743;28;20393;-67
2023/05/15 15:20:30;;;;;;;11.05;5.93;;;;;;;14.00;100.00;101329.88;4988006;28;20026;-68
2023/05/15 15:22:55;;;;;;;8.80;5.03;;;;;;;13.99;100.00;101336.34;4990833;28;20045;-69
2023/05/15 15:25:21;;;;;;;11.45;5.22;;;;;;;13.91;100.00;101337.53;5005677;28;20029;-68
2023/05/15 15:27:47;;;;;;;11.95;5.47;;;;;;;13.82;100.00;101336.22;5013428;28;20026;-68
2023/05/15 15:30:13;;;;;;;13.88;5.57;;;;;;;13.85;100.00;101337.66;5005643;28;20034;-68
2023/05/15 15:32:39;;;;;;;17.77;5.43;;;;;;;13.76;100.00;101342.63;4993397;28;20030;-68
2023/05/15 15:35:05;;;;;;;16.58;6.05;;;;;;;13.65;100.00;101345.06;4993838;28;20033;-69
2023/05/15 15:37:36;;;;;;;15.18;5.57;;;;;;;13.56;100.00;101343.75;4995712;28;20031;-68
2023/05/15 15:40:04;;;;;;;11.88;4.88;;;;;;;13.50;100.00;101360.16;4985411;28;20058;-69
2023/05/15 15:42:29;;;;;;;14.23;4.72;;;;;;;13.42;100.00;101350.44;4993454;28;20029;-69
2023/05/15 15:44:55;;;;;;;13.13;4.97;;;;;;;13.37;100.00;101355.75;4990205;28;20035;-70
2023/05/15 15:47:21;;;;;;;13.68;5.47;;;;;;;13.39;100.00;101359.06;4993382;28;20041;-72
2023/05/15 15:49:47;;;;;;;14.30;4.95;;;;;;;13.44;100.00;101351.06;4991911;28;20049;-70
2023/05/15 15:52:12;;;;;;;12.93;4.63;;;;;;;13.50;100.00;101355.56;4993171;28;20108;-69
2023/05/15 15:54:38;;;;;;;10.75;4.90;;;;;;;13.48;100.00;101354.94;4992134;28;20470;-69
2023/05/15 15:57:04;;;;;;;11.35;4.55;;;;;;;13.41;100.00;101362.41;4982676;28;20031;-69
2023/05/15 15:59:29;;;;;;;12.25;4.50;;;;;;;13.35;100.00;101363.31;4974616;28;20038;-68
2023/05/15 16:01:55;;;;;;;15.00;5.15;;;;;;;13.42;100.00;101358.59;4988378;28;20053;-68
